createdAt,value
2023-04-08T20:54:48.620Z,4.44
2023-04-08T20:57:22.177Z,4.38
2023-04-08T20:59:54.904Z,4.30
2023-04-08T21:02:31.650Z,4.21
2023-04-08T21:05:00.146Z,4.13
2023-04-08T21:07:35.737Z,4.05
2023-04-08T21:10:06.966Z,3.97
2023-04-08T21:12:34.734Z,3.91
2023-04-08T21:15:02.985Z,3.86
2023-04-08T21:17:36.076Z,3.80
2023-04-08T21:20:13.781Z,3.71
2023-04-08T21:22:45.924Z,3.65
2023-04-08T21:25:21.368Z,3.63
2023-04-08T21:27:50.034Z,3.63
2023-04-08T21:30:25.434Z,3.62
2023-04-08T21:33:00.990Z,3.56
2023-04-08T21:35:28.809Z,3.52
2023-04-08T21:37:57.062Z,3.49
2023-04-08T21:40:24.876Z,3.46
2023-04-08T21:42:53.041Z,3.41
2023-04-08T21:45:20.917Z,3.35
2023-04-08T21:47:50.750Z,3.29
2023-04-08T21:50:18.744Z,3.22
2023-04-08T21:52:47.256Z,3.16
2023-04-08T21:55:15.217Z,3.10
2023-04-08T21:57:42.992Z,3.03
2023-04-08T22:00:13.607Z,2.94
2023-04-08T22:02:41.611Z,2.90
2023-04-08T22:05:10.508Z,2.86
2023-04-08T22:07:38.238Z,2.84
2023-04-08T22:10:06.763Z,2.81
2023-04-08T22:12:34.751Z,2.83
2023-04-08T22:15:03.722Z,2.85
2023-04-08T22:17:31.613Z,2.84
2023-04-08T22:19:59.394Z,2.80
2023-04-08T22:22:27.249Z,2.79
2023-04-08T22:24:55.775Z,2.80
2023-04-08T22:27:23.610Z,2.80
2023-04-08T22:29:51.742Z,2.75
2023-04-08T22:32:19.473Z,2.69
2023-04-08T22:34:47.307Z,2.64
2023-04-08T22:37:15.059Z,2.60
2023-04-08T22:39:42.798Z,2.56
2023-04-08T22:42:11.034Z,2.55
2023-04-08T22:44:39.243Z,2.51
2023-04-08T22:47:07.195Z,2.51
2023-04-08T22:49:34.972Z,2.53
2023-04-08T22:52:02.778Z,2.55
2023-04-08T22:54:31.117Z,2.54
2023-04-08T22:56:58.878Z,2.56
2023-04-08T22:59:27.116Z,2.58
2023-04-08T23:01:55.860Z,2.58
2023-04-08T23:04:23.876Z,2.60
2023-04-08T23:06:51.907Z,2.63
2023-04-08T23:09:20.715Z,2.63
2023-04-08T23:11:48.519Z,2.63
2023-04-08T23:14:17.015Z,2.63
2023-04-08T23:16:45.703Z,2.65
2023-04-08T23:19:13.539Z,2.66
2023-04-08T23:21:41.580Z,2.68
2023-04-08T23:24:10.405Z,2.70
2023-04-08T23:26:38.555Z,2.70
2023-04-08T23:29:06.904Z,2.71
2023-04-08T23:31:35.429Z,2.70
2023-04-08T23:34:03.401Z,2.71
2023-04-08T23:36:31.482Z,2.70
2023-04-08T23:38:59.248Z,2.64
2023-04-08T23:41:27.655Z,2.62
2023-04-08T23:43:55.981Z,2.62
2023-04-08T23:46:26.693Z,2.60
2023-04-08T23:48:54.561Z,2.60
2023-04-08T23:51:22.572Z,2.57
2023-04-08T23:53:52.225Z,2.51
2023-04-08T23:56:20.828Z,2.49
2023-04-08T23:58:48.582Z,2.45
